sensor_id;sensor_type;location;lat;lon;timestamp;P1;durP1;ratioP1;P2;durP2;ratioP2
22829;SDS011;11581;51.250;6.778;2023-05-09T00:01:58;7.35;;;5.30;;
22829;SDS011;11581;51.250;6.778;2023-05-09T00:04:25;6.95;;;5.38;;
22829;SDS011;11581;51.250;6.778;2023-05-09T00:06:51;10.05;;;5.75;;
22829;SDS011;11581;51.250;6.778;2023-05-09T00:09:18;7.40;;;5.63;;
22829;SDS011;11581;51.250;6.778;2023-05-09T00:11:44;12.35;;;6.00;;
22829;SDS011;11581;51.250;6.778;2023-05-09T00:14:11;6.95;;;5.70;;
22829;SDS011;11581;51.250;6.778;2023-05-09T00:16:38;7.45;;;4.82;;
22829;SDS011;11581;51.250;6.778;2023-05-09T00:19:04;6.95;;;5.45;;
22829;SDS011;11581;51.250;6.778;2023-05-09T00:21:31;6.90;;;5.55;;
22829;SDS011;11581;51.250;6.778;2023-05-09T00:23:58;7.50;;;5.70;;
22829;SDS011;11581;51.250;6.778;2023-05-09T00:26:25;7.55;;;5.53;;
22829;SDS011;11581;51.250;6.778;2023-05-09T00:28:52;8.02;;;6.50;;
22829;SDS011;11581;51.250;6.778;2023-05-09T00:31:18;6.80;;;5.85;;
22829;SDS011;11581;51.250;6.778;2023-05-09T00:33:46;6.97;;;5.82;;
22829;SDS011;11581;51.250;6.778;2023-05-09T00:36:12;7.53;;;6.32;;
22829;SDS011;11581;51.250;6.778;2023-05-09T00:38:39;8.85;;;6.50;;
22829;SDS011;11581;51.250;6.778;2023-05-09T00:41:05;8.15;;;6.05;;
22829;SDS011;11581;51.250;6.778;2023-05-09T00:43:32;12.10;;;6.90;;
22829;SDS011;11581;51.250;6.778;2023-05-09T00:45:58;8.25;;;6.90;;
22829;SDS011;11581;51.250;6.778;2023-05-09T00:48:25;9.30;;;7.07;;
22829;SDS011;11581;51.250;6.778;2023-05-09T00:50:51;8.75;;;6.55;;
22829;SDS011;11581;51.250;6.778;2023-05-09T00:53:18;11.65;;;7.07;;
22829;SDS011;11581;51.250;6.778;2023-05-09T00:55:45;9.70;;;6.95;;
22829;SDS011;11581;51.250;6.778;2023-05-09T00:58:12;8.02;;;6.93;;
22829;SDS011;11581;51.250;6.778;2023-05-09T01:00:39;8.68;;;7.07;;
22829;SDS011;11581;51.250;6.778;2023-05-09T01:03:05;9.70;;;6.90;;
22829;SDS011;11581;51.250;6.778;2023-05-09T01:05:53;9.70;;;6.90;;
22829;SDS011;11581;51.250;6.778;2023-05-09T01:08:28;9.88;;;6.88;;
22829;SDS011;11581;51.250;6.778;2023-05-09T01:11:02;7.82;;;6.47;;
22829;SDS011;11581;51.250;6.778;2023-05-09T01:13:48;11.85;;;6.85;;
22829;SDS011;11581;51.250;6.778;2023-05-09T01:16:40;10.18;;;7.70;;
22829;SDS011;11581;51.250;6.778;2023-05-09T01:19:43;8.90;;;6.70;;
22829;SDS011;11581;51.250;6.778;2023-05-09T01:22:33;9.93;;;7.03;;
22829;SDS011;11581;51.250;6.778;2023-05-09T01:27:57;7.55;;;6.75;;
22829;SDS011;11581;51.250;6.778;2023-05-09T01:30:28;8.95;;;6.97;;
22829;SDS011;11581;51.250;6.778;2023-05-09T01:32:58;9.15;;;7.30;;
22829;SDS011;11581;51.250;6.778;2023-05-09T01:35:25;8.50;;;7.15;;
22829;SDS011;11581;51.250;6.778;2023-05-09T01:37:55;8.90;;;7.43;;
22829;SDS011;11581;51.250;6.778;2023-05-09T01:40:24;8.98;;;7.20;;
22829;SDS011;11581;51.250;6.778;2023-05-09T01:43:03;9.05;;;7.05;;
22829;SDS011;11581;51.250;6.778;2023-05-09T01:45:34;10.00;;;6.97;;
22829;SDS011;11581;51.250;6.778;2023-05-09T01:48:03;9.18;;;7.45;;
22829;SDS011;11581;51.250;6.778;2023-05-09T01:50:32;11.10;;;7.43;;
22829;SDS011;11581;51.250;6.778;2023-05-09T01:53:00;10.05;;;7.70;;
22829;SDS011;11581;51.250;6.778;2023-05-09T01:55:29;9.10;;;7.43;;
22829;SDS011;11581;51.250;6.778;2023-05-09T01:57:58;10.30;;;7.85;;
22829;SDS011;11581;51.250;6.778;2023-05-09T02:00:25;11.25;;;8.27;;
22829;SDS011;11581;51.250;6.778;2023-05-09T02:02:53;12.18;;;9.57;;
22829;SDS011;11581;51.250;6.778;2023-05-09T02:05:20;13.63;;;10.02;;
22829;SDS011;11581;51.250;6.778;2023-05-09T02:07:51;16.35;;;10.40;;
22829;SDS011;11581;51.250;6.778;2023-05-09T02:10:21;15.13;;;10.45;;
22829;SDS011;11581;51.250;6.778;2023-05-09T02:12:50;16.40;;;10.60;;
22829;SDS011;11581;51.250;6.778;2023-05-09T02:15:17;17.88;;;12.18;;
22829;SDS011;11581;51.250;6.778;2023-05-09T02:17:44;20.30;;;13.70;;
22829;SDS011;11581;51.250;6.778;2023-05-09T02:20:10;22.35;;;15.07;;
22829;SDS011;11581;51.250;6.778;2023-05-09T02:22:38;22.25;;;15.27;;
22829;SDS011;11581;51.250;6.778;2023-05-09T02:25:09;19.27;;;14.02;;
22829;SDS011;11581;51.250;6.778;2023-05-09T02:27:39;24.65;;;15.68;;
22829;SDS011;11581;51.250;6.778;2023-05-09T02:30:07;20.75;;;15.15;;
22829;SDS011;11581;51.250;6.778;2023-05-09T02:32:37;27.95;;;17.38;;
22829;SDS011;11581;51.250;6.778;2023-05-09T02:35:05;28.45;;;19.50;;
22829;SDS011;11581;51.250;6.778;2023-05-09T02:37:35;28.13;;;19.27;;
22829;SDS011;11581;51.250;6.778;2023-05-09T02:40:02;26.45;;;18.13;;
22829;SDS011;11581;51.250;6.778;2023-05-09T02:42:29;26.20;;;18.15;;
22829;SDS011;11581;51.250;6.778;2023-05-09T02:44:55;27.23;;;17.60;;
22829;SDS011;11581;51.250;6.778;2023-05-09T02:47:22;26.88;;;18.25;;
22829;SDS011;11581;51.250;6.778;2023-05-09T02:49:49;29.77;;;18.15;;
22829;SDS011;11581;51.250;6.778;2023-05-09T02:52:16;25.77;;;17.77;;
22829;SDS011;11581;51.250;6.778;2023-05-09T02:54:42;26.80;;;17.48;;
22829;SDS011;11581;51.250;6.778;2023-05-09T02:57:10;29.63;;;17.60;;
22829;SDS011;11581;51.250;6.778;2023-05-09T02:59:36;27.38;;;18.27;;
22829;SDS011;11581;51.250;6.778;2023-05-09T03:02:03;29.45;;;19.33;;
22829;SDS011;11581;51.250;6.778;2023-05-09T03:04:30;26.58;;;17.08;;
22829;SDS011;11581;51.250;6.778;2023-05-09T03:06:57;25.45;;;16.80;;
22829;SDS011;11581;51.250;6.778;2023-05-09T03:09:29;23.55;;;16.92;;
22829;SDS011;11581;51.250;6.778;2023-05-09T03:11:55;26.90;;;18.30;;
22829;SDS011;11581;51.250;6.778;2023-05-09T03:14:21;25.27;;;17.02;;
22829;SDS011;11581;51.250;6.778;2023-05-09T03:16:48;26.83;;;17.85;;
22829;SDS011;11581;51.250;6.778;2023-05-09T03:19:29;27.23;;;17.50;;
22829;SDS011;11581;51.250;6.778;2023-05-09T03:21:56;25.60;;;16.65;;
22829;SDS011;11581;51.250;6.778;2023-05-09T03:24:24;23.45;;;17.20;;
22829;SDS011;11581;51.250;6.778;2023-05-09T03:26:52;26.27;;;18.40;;
22829;SDS011;11581;51.250;6.778;2023-05-09T03:29:19;29.33;;;18.08;;
22829;SDS011;11581;51.250;6.778;2023-05-09T03:31:45;26.33;;;16.95;;
22829;SDS011;11581;51.250;6.778;2023-05-09T03:34:12;25.83;;;17.35;;
22829;SDS011;11581;51.250;6.778;2023-05-09T03:36:40;24.30;;;17.38;;
22829;SDS011;11581;51.250;6.778;2023-05-09T03:39:10;27.15;;;16.77;;
22829;SDS011;11581;51.250;6.778;2023-05-09T03:41:41;23.60;;;16.40;;
22829;SDS011;11581;51.250;6.778;2023-05-09T03:44:08;24.45;;;17.45;;
22829;SDS011;11581;51.250;6.778;2023-05-09T03:46:35;24.92;;;15.57;;
22829;SDS011;11581;51.250;6.778;2023-05-09T03:49:02;27.90;;;16.90;;
22829;SDS011;11581;51.250;6.778;2023-05-09T03:51:30;23.77;;;16.77;;
22829;SDS011;11581;51.250;6.778;2023-05-09T03:53:59;22.13;;;16.40;;
22829;SDS011;11581;51.250;6.778;2023-05-09T03:56:25;27.00;;;16.83;;
22829;SDS011;11581;51.250;6.778;2023-05-09T03:58:52;24.90;;;16.33;;
22829;SDS011;11581;51.250;6.778;2023-05-09T04:01:19;23.45;;;15.35;;
22829;SDS011;11581;51.250;6.778;2023-05-09T04:03:45;23.55;;;15.20;;
22829;SDS011;11581;51.250;6.778;2023-05-09T04:06:14;21.05;;;15.77;;
22829;SDS011;11581;51.250;6.778;2023-05-09T04:08:42;23.90;;;16.20;;
22829;SDS011;11581;51.250;6.778;2023-05-09T04:11:09;19.23;;;14.23;;
22829;SDS011;11581;51.250;6.778;2023-05-09T04:13:38;22.15;;;14.05;;
22829;SDS011;11581;51.250;6.778;2023-05-09T04:16:17;22.60;;;14.60;;
22829;SDS011;11581;51.250;6.778;2023-05-09T04:18:43;22.83;;;14.30;;
22829;SDS011;11581;51.250;6.778;2023-05-09T04:21:10;21.30;;;14.57;;
22829;SDS011;11581;51.250;6.778;2023-05-09T04:23:37;22.33;;;14.48;;
22829;SDS011;11581;51.250;6.778;2023-05-09T04:26:04;20.48;;;14.65;;
22829;SDS011;11581;51.250;6.778;2023-05-09T04:28:31;25.15;;;14.75;;
22829;SDS011;11581;51.250;6.778;2023-05-09T04:30:59;24.45;;;14.68;;
22829;SDS011;11581;51.250;6.778;2023-05-09T04:33:26;29.80;;;16.33;;
22829;SDS011;11581;51.250;6.778;2023-05-09T04:35:58;27.88;;;15.75;;
22829;SDS011;11581;51.250;6.778;2023-05-09T04:38:25;29.25;;;16.58;;
22829;SDS011;11581;51.250;6.778;2023-05-09T04:40:52;32.78;;;18.70;;
22829;SDS011;11581;51.250;6.778;2023-05-09T04:43:18;28.27;;;16.30;;
22829;SDS011;11581;51.250;6.778;2023-05-09T04:45:45;33.80;;;18.65;;
22829;SDS011;11581;51.250;6.778;2023-05-09T04:48:13;32.05;;;17.88;;
22829;SDS011;11581;51.250;6.778;2023-05-09T04:50:39;37.28;;;19.00;;
22829;SDS011;11581;51.250;6.778;2023-05-09T04:53:06;31.95;;;17.38;;
22829;SDS011;11581;51.250;6.778;2023-05-09T04:55:34;30.15;;;17.52;;
22829;SDS011;11581;51.250;6.778;2023-05-09T04:58:00;31.58;;;17.55;;
22829;SDS011;11581;51.250;6.778;2023-05-09T05:00:27;35.25;;;16.88;;
22829;SDS011;11581;51.250;6.778;2023-05-09T05:02:54;30.00;;;17.08;;
22829;SDS011;11581;51.250;6.778;2023-05-09T05:05:23;36.85;;;17.98;;
22829;SDS011;11581;51.250;6.778;2023-05-09T05:07:50;35.80;;;18.60;;
22829;SDS011;11581;51.250;6.778;2023-05-09T05:10:20;37.58;;;18.75;;
22829;SDS011;11581;51.250;6.778;2023-05-09T05:12:51;38.35;;;19.35;;
22829;SDS011;11581;51.250;6.778;2023-05-09T05:15:18;34.53;;;18.73;;
22829;SDS011;11581;51.250;6.778;2023-05-09T05:17:46;47.90;;;24.60;;
22829;SDS011;11581;51.250;6.778;2023-05-09T05:20:15;50.17;;;23.27;;
22829;SDS011;11581;51.250;6.778;2023-05-09T05:22:44;41.88;;;22.10;;
22829;SDS011;11581;51.250;6.778;2023-05-09T05:25:11;38.75;;;20.60;;
22829;SDS011;11581;51.250;6.778;2023-05-09T05:27:39;30.48;;;17.25;;
22829;SDS011;11581;51.250;6.778;2023-05-09T05:30:08;30.67;;;16.98;;
22829;SDS011;11581;51.250;6.778;2023-05-09T05:32:35;21.17;;;13.90;;
22829;SDS011;11581;51.250;6.778;2023-05-09T05:35:02;20.77;;;13.30;;
22829;SDS011;11581;51.250;6.778;2023-05-09T05:37:30;17.17;;;12.20;;
22829;SDS011;11581;51.250;6.778;2023-05-09T05:39:57;15.98;;;11.48;;
22829;SDS011;11581;51.250;6.778;2023-05-09T05:42:24;17.17;;;11.93;;
22829;SDS011;11581;51.250;6.778;2023-05-09T05:44:50;15.25;;;11.00;;
22829;SDS011;11581;51.250;6.778;2023-05-09T05:47:17;13.02;;;9.57;;
22829;SDS011;11581;51.250;6.778;2023-05-09T05:49:44;15.32;;;9.63;;
22829;SDS011;11581;51.250;6.778;2023-05-09T05:52:10;12.68;;;9.77;;
22829;SDS011;11581;51.250;6.778;2023-05-09T05:54:37;12.98;;;10.23;;
22829;SDS011;11581;51.250;6.778;2023-05-09T05:57:03;12.15;;;10.00;;
22829;SDS011;11581;51.250;6.778;2023-05-09T05:59:30;13.55;;;10.52;;
22829;SDS011;11581;51.250;6.778;2023-05-09T06:01:56;11.00;;;8.93;;
22829;SDS011;11581;51.250;6.778;2023-05-09T06:04:23;11.90;;;9.02;;
22829;SDS011;11581;51.250;6.778;2023-05-09T06:06:53;11.00;;;9.02;;
22829;SDS011;11581;51.250;6.778;2023-05-09T06:09:24;11.73;;;9.20;;
22829;SDS011;11581;51.250;6.778;2023-05-09T06:11:50;12.50;;;10.02;;
22829;SDS011;11581;51.250;6.778;2023-05-09T06:14:17;10.55;;;8.95;;
22829;SDS011;11581;51.250;6.778;2023-05-09T06:16:44;12.98;;;10.27;;
22829;SDS011;11581;51.250;6.778;2023-05-09T06:19:10;13.68;;;10.38;;
22829;SDS011;11581;51.250;6.778;2023-05-09T06:21:36;11.82;;;9.48;;
22829;SDS011;11581;51.250;6.778;2023-05-09T06:24:03;11.07;;;8.85;;
22829;SDS011;11581;51.250;6.778;2023-05-09T06:26:30;9.48;;;8.20;;
22829;SDS011;11581;51.250;6.778;2023-05-09T06:28:57;11.00;;;8.35;;
22829;SDS011;11581;51.250;6.778;2023-05-09T06:31:23;9.70;;;8.10;;
22829;SDS011;11581;51.250;6.778;2023-05-09T06:33:50;9.85;;;8.32;;
22829;SDS011;11581;51.250;6.778;2023-05-09T06:36:16;10.02;;;8.50;;
22829;SDS011;11581;51.250;6.778;2023-05-09T06:38:43;10.85;;;9.00;;
22829;SDS011;11581;51.250;6.778;2023-05-09T06:41:09;15.30;;;8.68;;
22829;SDS011;11581;51.250;6.778;2023-05-09T06:43:36;12.80;;;8.95;;
22829;SDS011;11581;51.250;6.778;2023-05-09T06:46:02;11.38;;;8.60;;
22829;SDS011;11581;51.250;6.778;2023-05-09T06:48:29;13.77;;;8.82;;
22829;SDS011;11581;51.250;6.778;2023-05-09T06:50:55;9.35;;;8.35;;
22829;SDS011;11581;51.250;6.778;2023-05-09T06:53:22;9.57;;;8.57;;
22829;SDS011;11581;51.250;6.778;2023-05-09T06:55:48;11.90;;;9.07;;
22829;SDS011;11581;51.250;6.778;2023-05-09T06:58:15;12.10;;;8.15;;
22829;SDS011;11581;51.250;6.778;2023-05-09T07:00:41;11.52;;;8.32;;
22829;SDS011;11581;51.250;6.778;2023-05-09T07:03:08;11.00;;;8.35;;
22829;SDS011;11581;51.250;6.778;2023-05-09T07:05:35;12.10;;;7.97;;
22829;SDS011;11581;51.250;6.778;2023-05-09T07:08:02;12.95;;;8.77;;
22829;SDS011;11581;51.250;6.778;2023-05-09T07:10:28;10.00;;;8.38;;
22829;SDS011;11581;51.250;6.778;2023-05-09T07:12:55;8.57;;;7.70;;
22829;SDS011;11581;51.250;6.778;2023-05-09T07:15:22;10.57;;;7.43;;
22829;SDS011;11581;51.250;6.778;2023-05-09T07:17:48;8.98;;;7.40;;
22829;SDS011;11581;51.250;6.778;2023-05-09T07:20:16;9.70;;;7.65;;
22829;SDS011;11581;51.250;6.778;2023-05-09T07:22:42;9.32;;;7.55;;
22829;SDS011;11581;51.250;6.778;2023-05-09T07:25:09;13.98;;;7.53;;
22829;SDS011;11581;51.250;6.778;2023-05-09T07:27:35;8.20;;;6.93;;
22829;SDS011;11581;51.250;6.778;2023-05-09T07:30:03;9.90;;;7.85;;
22829;SDS011;11581;51.250;6.778;2023-05-09T07:32:30;8.25;;;7.10;;
22829;SDS011;11581;51.250;6.778;2023-05-09T07:34:56;10.65;;;7.45;;
22829;SDS011;11581;51.250;6.778;2023-05-09T07:37:23;8.70;;;7.25;;
22829;SDS011;11581;51.250;6.778;2023-05-09T07:39:49;7.97;;;7.00;;
22829;SDS011;11581;51.250;6.778;2023-05-09T07:42:16;8.68;;;7.07;;
22829;SDS011;11581;51.250;6.778;2023-05-09T07:44:43;8.70;;;7.13;;
22829;SDS011;11581;51.250;6.778;2023-05-09T07:47:09;12.20;;;7.82;;
22829;SDS011;11581;51.250;6.778;2023-05-09T07:49:36;9.75;;;7.25;;
22829;SDS011;11581;51.250;6.778;2023-05-09T07:52:04;8.30;;;6.68;;
22829;SDS011;11581;51.250;6.778;2023-05-09T07:54:30;12.80;;;7.07;;
22829;SDS011;11581;51.250;6.778;2023-05-09T07:56:57;7.53;;;6.07;;
22829;SDS011;11581;51.250;6.778;2023-05-09T07:59:23;8.68;;;6.60;;
22829;SDS011;11581;51.250;6.778;2023-05-09T08:01:50;7.22;;;5.63;;
22829;SDS011;11581;51.250;6.778;2023-05-09T08:04:16;8.00;;;6.22;;
22829;SDS011;11581;51.250;6.778;2023-05-09T08:06:45;10.05;;;4.78;;
22829;SDS011;11581;51.250;6.778;2023-05-09T08:09:11;7.75;;;5.50;;
22829;SDS011;11581;51.250;6.778;2023-05-09T08:11:38;6.43;;;5.13;;
22829;SDS011;11581;51.250;6.778;2023-05-09T08:14:04;5.90;;;5.10;;
22829;SDS011;11581;51.250;6.778;2023-05-09T08:16:31;6.85;;;4.75;;
22829;SDS011;11581;51.250;6.778;2023-05-09T08:18:57;6.95;;;4.75;;
22829;SDS011;11581;51.250;6.778;2023-05-09T08:21:24;8.77;;;4.63;;
22829;SDS011;11581;51.250;6.778;2023-05-09T08:23:51;5.90;;;4.95;;
22829;SDS011;11581;51.250;6.778;2023-05-09T08:26:17;5.82;;;4.35;;
22829;SDS011;11581;51.250;6.778;2023-05-09T08:28:46;4.60;;;3.92;;
22829;SDS011;11581;51.250;6.778;2023-05-09T08:31:13;4.90;;;3.53;;
22829;SDS011;11581;51.250;6.778;2023-05-09T08:33:39;3.78;;;2.60;;
22829;SDS011;11581;51.250;6.778;2023-05-09T08:36:06;4.65;;;3.63;;
22829;SDS011;11581;51.250;6.778;2023-05-09T08:38:32;4.55;;;2.92;;
22829;SDS011;11581;51.250;6.778;2023-05-09T08:41:00;5.93;;;3.05;;
22829;SDS011;11581;51.250;6.778;2023-05-09T08:43:27;8.38;;;3.35;;
22829;SDS011;11581;51.250;6.778;2023-05-09T08:45:56;4.47;;;2.55;;
22829;SDS011;11581;51.250;6.778;2023-05-09T08:48:24;4.15;;;2.47;;
22829;SDS011;11581;51.250;6.778;2023-05-09T08:50:51;4.40;;;1.90;;
22829;SDS011;11581;51.250;6.778;2023-05-09T08:53:20;5.22;;;2.25;;
22829;SDS011;11581;51.250;6.778;2023-05-09T08:55:47;4.68;;;1.95;;
22829;SDS011;11581;51.250;6.778;2023-05-09T08:58:15;3.00;;;1.73;;
22829;SDS011;11581;51.250;6.778;2023-05-09T09:00:43;4.72;;;2.03;;
22829;SDS011;11581;51.250;6.778;2023-05-09T09:03:11;3.00;;;2.05;;
22829;SDS011;11581;51.250;6.778;2023-05-09T09:05:38;3.50;;;1.52;;
22829;SDS011;11581;51.250;6.778;2023-05-09T09:08:08;3.78;;;1.88;;
22829;SDS011;11581;51.250;6.778;2023-05-09T09:10:37;2.70;;;2.05;;
22829;SDS011;11581;51.250;6.778;2023-05-09T09:13:06;3.28;;;1.58;;
22829;SDS011;11581;51.250;6.778;2023-05-09T09:15:35;3.63;;;2.03;;
22829;SDS011;11581;51.250;6.778;2023-05-09T09:18:07;3.72;;;2.00;;
22829;SDS011;11581;51.250;6.778;2023-05-09T09:20:40;4.43;;;1.70;;
22829;SDS011;11581;51.250;6.778;2023-05-09T09:23:10;3.97;;;1.63;;
22829;SDS011;11581;51.250;6.778;2023-05-09T09:25:44;2.80;;;1.67;;
22829;SDS011;11581;51.250;6.778;2023-05-09T09:28:11;3.13;;;1.50;;
22829;SDS011;11581;51.250;6.778;2023-05-09T09:30:46;2.65;;;1.60;;
22829;SDS011;11581;51.250;6.778;2023-05-09T09:33:19;3.38;;;1.50;;
22829;SDS011;11581;51.250;6.778;2023-05-09T09:38:15;2.28;;;1.30;;
22829;SDS011;11581;51.250;6.778;2023-05-09T09:40:53;6.00;;;1.65;;
22829;SDS011;11581;51.250;6.778;2023-05-09T09:43:27;1.50;;;1.10;;
22829;SDS011;11581;51.250;6.778;2023-05-09T09:45:54;2.90;;;1.30;;
22829;SDS011;11581;51.250;6.778;2023-05-09T09:48:24;3.40;;;1.27;;
22829;SDS011;11581;51.250;6.778;2023-05-09T09:50:54;5.75;;;1.40;;
22829;SDS011;11581;51.250;6.778;2023-05-09T09:53:21;4.25;;;1.52;;
22829;SDS011;11581;51.250;6.778;2023-05-09T09:55:49;2.35;;;1.33;;
22829;SDS011;11581;51.250;6.778;2023-05-09T09:58:17;2.22;;;1.40;;
22829;SDS011;11581;51.250;6.778;2023-05-09T10:00:46;2.13;;;1.15;;
22829;SDS011;11581;51.250;6.778;2023-05-09T10:03:14;2.30;;;1.30;;
22829;SDS011;11581;51.250;6.778;2023-05-09T10:05:41;1.65;;;1.08;;
22829;SDS011;11581;51.250;6.778;2023-05-09T10:08:08;3.67;;;1.60;;
22829;SDS011;11581;51.250;6.778;2023-05-09T10:10:35;1.98;;;1.25;;
22829;SDS011;11581;51.250;6.778;2023-05-09T10:13:03;5.47;;;1.17;;
22829;SDS011;11581;51.250;6.778;2023-05-09T10:15:31;2.67;;;1.30;;
22829;SDS011;11581;51.250;6.778;2023-05-09T10:18:00;2.92;;;1.63;;
22829;SDS011;11581;51.250;6.778;2023-05-09T10:20:29;3.53;;;1.40;;
22829;SDS011;11581;51.250;6.778;2023-05-09T10:22:57;2.17;;;1.40;;
22829;SDS011;11581;51.250;6.778;2023-05-09T10:25:27;2.88;;;1.38;;
22829;SDS011;11581;51.250;6.778;2023-05-09T10:27:59;2.28;;;1.15;;
22829;SDS011;11581;51.250;6.778;2023-05-09T10:30:26;4.72;;;1.30;;
22829;SDS011;11581;51.250;6.778;2023-05-09T10:35:30;3.13;;;1.13;;
22829;SDS011;11581;51.250;6.778;2023-05-09T10:37:58;2.08;;;1.33;;
22829;SDS011;11581;51.250;6.778;2023-05-09T10:40:27;4.35;;;1.38;;
22829;SDS011;11581;51.250;6.778;2023-05-09T10:42:56;2.53;;;1.00;;
22829;SDS011;11581;51.250;6.778;2023-05-09T10:45:22;2.78;;;1.40;;
22829;SDS011;11581;51.250;6.778;2023-05-09T10:47:49;6.93;;;1.38;;
22829;SDS011;11581;51.250;6.778;2023-05-09T10:50:17;2.05;;;1.23;;
22829;SDS011;11581;51.250;6.778;2023-05-09T10:58:30;2.58;;;1.20;;
22829;SDS011;11581;51.250;6.778;2023-05-09T11:01:00;4.43;;;1.55;;
22829;SDS011;11581;51.250;6.778;2023-05-09T11:09:26;4.13;;;1.30;;
22829;SDS011;11581;51.250;6.778;2023-05-09T11:14:44;3.97;;;1.30;;
22829;SDS011;11581;51.250;6.778;2023-05-09T11:22:19;2.83;;;1.33;;
22829;SDS011;11581;51.250;6.778;2023-05-09T11:24:51;2.65;;;1.50;;
22829;SDS011;11581;51.250;6.778;2023-05-09T11:27:24;7.43;;;2.05;;
22829;SDS011;11581;51.250;6.778;2023-05-09T11:29:56;6.70;;;1.35;;
22829;SDS011;11581;51.250;6.778;2023-05-09T11:32:27;3.53;;;1.48;;
22829;SDS011;11581;51.250;6.778;2023-05-09T11:37:58;3.63;;;1.70;;
22829;SDS011;11581;51.250;6.778;2023-05-09T11:40:26;3.47;;;1.23;;
22829;SDS011;11581;51.250;6.778;2023-05-09T11:42:55;3.88;;;1.17;;
22829;SDS011;11581;51.250;6.778;2023-05-09T11:45:24;1.48;;;0.98;;
22829;SDS011;11581;51.250;6.778;2023-05-09T11:47:54;2.10;;;1.15;;
22829;SDS011;11581;51.250;6.778;2023-05-09T11:50:22;2.70;;;0.98;;
22829;SDS011;11581;51.250;6.778;2023-05-09T11:52:48;2.08;;;0.93;;
22829;SDS011;11581;51.250;6.778;2023-05-09T11:55:17;2.70;;;1.00;;
22829;SDS011;11581;51.250;6.778;2023-05-09T11:57:47;1.27;;;0.90;;
22829;SDS011;11581;51.250;6.778;2023-05-09T12:00:24;2.97;;;0.98;;
22829;SDS011;11581;51.250;6.778;2023-05-09T12:02:51;1.40;;;0.90;;
22829;SDS011;11581;51.250;6.778;2023-05-09T12:05:18;2.25;;;0.80;;
22829;SDS011;11581;51.250;6.778;2023-05-09T12:07:46;2.42;;;1.17;;
22829;SDS011;11581;51.250;6.778;2023-05-09T12:10:17;5.75;;;1.30;;
22829;SDS011;11581;51.250;6.778;2023-05-09T12:12:46;3.72;;;1.30;;
22829;SDS011;11581;51.250;6.778;2023-05-09T12:15:13;3.00;;;1.25;;
22829;SDS011;11581;51.250;6.778;2023-05-09T12:17:44;4.50;;;1.60;;
22829;SDS011;11581;51.250;6.778;2023-05-09T12:20:11;2.15;;;1.17;;
22829;SDS011;11581;51.250;6.778;2023-05-09T12:22:41;6.93;;;1.27;;
22829;SDS011;11581;51.250;6.778;2023-05-09T12:25:08;2.28;;;1.20;;
22829;SDS011;11581;51.250;6.778;2023-05-09T12:27:36;2.03;;;1.23;;
22829;SDS011;11581;51.250;6.778;2023-05-09T12:30:06;2.35;;;1.35;;
22829;SDS011;11581;51.250;6.778;2023-05-09T12:32:34;3.75;;;1.17;;
22829;SDS011;11581;51.250;6.778;2023-05-09T12:35:05;3.97;;;1.50;;
22829;SDS011;11581;51.250;6.778;2023-05-09T12:37:32;3.78;;;1.50;;
22829;SDS011;11581;51.250;6.778;2023-05-09T12:40:08;2.17;;;1.17;;
22829;SDS011;11581;51.250;6.778;2023-05-09T12:42:36;2.47;;;1.23;;
22829;SDS011;11581;51.250;6.778;2023-05-09T12:45:06;3.15;;;1.70;;
22829;SDS011;11581;51.250;6.778;2023-05-09T12:47:33;5.20;;;1.42;;
22829;SDS011;11581;51.250;6.778;2023-05-09T12:50:01;3.60;;;1.35;;
22829;SDS011;11581;51.250;6.778;2023-05-09T12:52:33;5.57;;;1.23;;
22829;SDS011;11581;51.250;6.778;2023-05-09T12:55:05;2.80;;;1.27;;
22829;SDS011;11581;51.250;6.778;2023-05-09T12:57:32;2.35;;;1.00;;
22829;SDS011;11581;51.250;6.778;2023-05-09T12:59:59;2.45;;;1.00;;
22829;SDS011;11581;51.250;6.778;2023-05-09T13:02:27;1.98;;;1.17;;
22829;SDS011;11581;51.250;6.778;2023-05-09T13:07:39;6.57;;;2.58;;
22829;SDS011;11581;51.250;6.778;2023-05-09T13:10:16;3.35;;;1.77;;
22829;SDS011;11581;51.250;6.778;2023-05-09T13:12:46;9.38;;;2.45;;
22829;SDS011;11581;51.250;6.778;2023-05-09T13:15:16;6.03;;;1.88;;
22829;SDS011;11581;51.250;6.778;2023-05-09T13:17:48;3.95;;;1.75;;
22829;SDS011;11581;51.250;6.778;2023-05-09T13:20:15;5.05;;;1.92;;
22829;SDS011;11581;51.250;6.778;2023-05-09T13:22:43;4.57;;;1.73;;
22829;SDS011;11581;51.250;6.778;2023-05-09T13:25:10;3.33;;;1.95;;
22829;SDS011;11581;51.250;6.778;2023-05-09T13:27:37;4.45;;;2.30;;
22829;SDS011;11581;51.250;6.778;2023-05-09T13:30:04;6.25;;;2.33;;
22829;SDS011;11581;51.250;6.778;2023-05-09T13:32:32;3.70;;;2.20;;
22829;SDS011;11581;51.250;6.778;2023-05-09T13:35:00;4.20;;;2.53;;
22829;SDS011;11581;51.250;6.778;2023-05-09T13:37:27;4.63;;;2.40;;
22829;SDS011;11581;51.250;6.778;2023-05-09T13:39:54;3.60;;;2.47;;
22829;SDS011;11581;51.250;6.778;2023-05-09T13:42:20;2.85;;;1.95;;
22829;SDS011;11581;51.250;6.778;2023-05-09T13:44:47;3.70;;;2.40;;
22829;SDS011;11581;51.250;6.778;2023-05-09T13:47:13;4.85;;;2.22;;
22829;SDS011;11581;51.250;6.778;2023-05-09T13:49:40;5.70;;;2.63;;
22829;SDS011;11581;51.250;6.778;2023-05-09T13:52:06;5.88;;;2.53;;
22829;SDS011;11581;51.250;6.778;2023-05-09T13:54:33;4.95;;;2.50;;
22829;SDS011;11581;51.250;6.778;2023-05-09T13:57:00;3.40;;;2.25;;
22829;SDS011;11581;51.250;6.778;2023-05-09T13:59:29;3.15;;;2.13;;
22829;SDS011;11581;51.250;6.778;2023-05-09T14:01:59;3.88;;;2.40;;
22829;SDS011;11581;51.250;6.778;2023-05-09T14:04:26;4.35;;;2.70;;
22829;SDS011;11581;51.250;6.778;2023-05-09T14:06:54;3.38;;;2.70;;
22829;SDS011;11581;51.250;6.778;2023-05-09T14:09:21;8.95;;;2.50;;
22829;SDS011;11581;51.250;6.778;2023-05-09T14:11:51;4.45;;;2.83;;
22829;SDS011;11581;51.250;6.778;2023-05-09T14:14:18;3.80;;;2.47;;
22829;SDS011;11581;51.250;6.778;2023-05-09T14:16:45;6.00;;;2.65;;
22829;SDS011;11581;51.250;6.778;2023-05-09T14:19:12;3.72;;;2.45;;
22829;SDS011;11581;51.250;6.778;2023-05-09T14:21:40;4.30;;;2.60;;
22829;SDS011;11581;51.250;6.778;2023-05-09T14:24:08;5.57;;;2.53;;
22829;SDS011;11581;51.250;6.778;2023-05-09T14:26:35;3.95;;;2.10;;
22829;SDS011;11581;51.250;6.778;2023-05-09T14:29:02;3.97;;;2.83;;
22829;SDS011;11581;51.250;6.778;2023-05-09T14:31:29;3.75;;;2.40;;
22829;SDS011;11581;51.250;6.778;2023-05-09T14:33:56;3.67;;;2.40;;
22829;SDS011;11581;51.250;6.778;2023-05-09T14:36:24;3.60;;;2.30;;
22829;SDS011;11581;51.250;6.778;2023-05-09T14:38:51;3.15;;;2.33;;
22829;SDS011;11581;51.250;6.778;2023-05-09T14:41:18;3.50;;;2.50;;
22829;SDS011;11581;51.250;6.778;2023-05-09T14:43:46;3.47;;;2.38;;
22829;SDS011;11581;51.250;6.778;2023-05-09T14:46:13;4.28;;;2.53;;
22829;SDS011;11581;51.250;6.778;2023-05-09T14:48:39;5.28;;;2.80;;
22829;SDS011;11581;51.250;6.778;2023-05-09T14:51:06;5.43;;;3.05;;
22829;SDS011;11581;51.250;6.778;2023-05-09T14:53:32;4.70;;;3.05;;
22829;SDS011;11581;51.250;6.778;2023-05-09T14:56:04;4.57;;;3.25;;
22829;SDS011;11581;51.250;6.778;2023-05-09T14:58:31;3.83;;;2.88;;
22829;SDS011;11581;51.250;6.778;2023-05-09T15:00:58;3.83;;;2.42;;
22829;SDS011;11581;51.250;6.778;2023-05-09T15:03:25;5.07;;;2.90;;
22829;SDS011;11581;51.250;6.778;2023-05-09T15:05:52;6.10;;;3.08;;
22829;SDS011;11581;51.250;6.778;2023-05-09T15:08:19;5.05;;;3.13;;
22829;SDS011;11581;51.250;6.778;2023-05-09T15:10:46;4.30;;;2.90;;
22829;SDS011;11581;51.250;6.778;2023-05-09T15:13:17;3.30;;;2.47;;
22829;SDS011;11581;51.250;6.778;2023-05-09T15:15:43;4.38;;;3.05;;
22829;SDS011;11581;51.250;6.778;2023-05-09T15:18:10;3.97;;;2.80;;